Alice International Airport
KALI : now visible

Aeroporto :











RITROVATECI SU...

 
LOGIN :

Iscrizione | Disclaimer

   EN    FR    IT 

 









Sommario :    VFR   VFR Marginale   IFR   IFR Intensivo   IFR Molto Intensivo
Visibilità : 
Base nubi : 
>= 8 km
>= 3000ft
5 / 8 km
1000 / 3000 ft
1500m / 5 km
500 / 1000 ft
800 / 1500m
200 / 500 ft
< 800m
< 200 ft
Simboli :   Temporali  Nebbia  Neve Forte  Precipitazioni Forti  Vento > 20 kt







- Altitudine del aeroporto : 178 ft


KALI - Alice International

ULTIMO METAR :
  • 170053Z AUTO 10009KT 10SM CLR 31/23 A2987 RMK AO2 SLP114 T03060228

METARs OBSOLETI :
  • 162353Z AUTO 08014G20KT 10SM FEW065 34/20 A2986 RMK AO2 WSHFT 2243 SLP109 T03390200 10367 20328 55003
  • 162303Z AUTO 11012KT 10SM SCT075 SCT110 33/21 A2986 RMK AO2 WSHFT 2243 T03330206
  • 162253Z AUTO 10013KT 10SM SCT080 BKN110 34/20 A2986 RMK AO2 SLP108 T03390200

TAF KALI
Valido dal 17 a 00 ore il 18 a 00 ore UTC


162323Z 1700/1724 11012KT P6SM SCT080 BKN110
FM170900 VRB03KT P6SM SCT020 BKN070
TEMPO 1710/1714 BKN020
FM171500 02006KT P6SM VCSH SCT030
PROB30 1715/1718 4SM TSRA BR BKN030CB
Nessun NOTAM noto per questo aeroporto.



MetMap, La meteo Aeronautica in un colpo d'occhio ! - Copyright ORBIFLY Dicembre 2007 - Disclaimer

ORBIFLY MET'MAP TEAM :

Programmazione e sviluppo : Alexandra Zaïnal
Concezione e sviluppo : Baudouin d'Aumeries
Co-Programmazione e sviluppo : Marc-Olivier Méhu
Supporto tecnico e logistico : Manuel Goepfert
Aiuto per la traduzione : Arnaldo La Scala

Contatto : metmap@orbifly.com




FONTI E CREDITI :

   NOAA       Earth
Advisory